sensor_id;sensor_type;location;lat;lon;timestamp;temperature;humidity
24011;DHT22;12217;50.792;4.372;2022-09-09T00:00:13;16.20;99.90
24011;DHT22;12217;50.792;4.372;2022-09-09T00:02:47;16.20;99.90
24011;DHT22;12217;50.792;4.372;2022-09-09T00:05:44;16.20;99.90
24011;DHT22;12217;50.792;4.372;2022-09-09T00:08:19;16.20;99.90
24011;DHT22;12217;50.792;4.372;2022-09-09T00:10:50;16.10;99.90
24011;DHT22;12217;50.792;4.372;2022-09-09T00:13:36;16.20;99.90
24011;DHT22;12217;50.792;4.372;2022-09-09T00:18:59;16.30;99.90
24011;DHT22;12217;50.792;4.372;2022-09-09T00:21:35;16.20;99.90
24011;DHT22;12217;50.792;4.372;2022-09-09T00:24:10;16.10;99.90
24011;DHT22;12217;50.792;4.372;2022-09-09T00:26:51;16.20;99.90
24011;DHT22;12217;50.792;4.372;2022-09-09T00:29:27;16.30;99.90
24011;DHT22;12217;50.792;4.372;2022-09-09T00:31:57;16.30;99.90
24011;DHT22;12217;50.792;4.372;2022-09-09T00:34:26;16.20;99.90
24011;DHT22;12217;50.792;4.372;2022-09-09T00:36:53;16.40;99.90
24011;DHT22;12217;50.792;4.372;2022-09-09T00:44:37;16.60;99.90
24011;DHT22;12217;50.792;4.372;2022-09-09T00:50:06;16.70;99.90
24011;DHT22;12217;50.792;4.372;2022-09-09T00:52:59;16.60;99.90
24011;DHT22;12217;50.792;4.372;2022-09-09T00:58:25;16.70;99.90
24011;DHT22;12217;50.792;4.372;2022-09-09T01:03:44;16.60;99.90
24011;DHT22;12217;50.792;4.372;2022-09-09T01:06:20;16.60;99.90
24011;DHT22;12217;50.792;4.372;2022-09-09T01:11:29;16.40;99.90
24011;DHT22;12217;50.792;4.372;2022-09-09T01:14:24;16.30;99.90
24011;DHT22;12217;50.792;4.372;2022-09-09T01:16:58;16.10;99.90
24011;DHT22;12217;50.792;4.372;2022-09-09T01:19:37;16.00;99.90
24011;DHT22;12217;50.792;4.372;2022-09-09T01:22:29;16.00;99.90
24011;DHT22;12217;50.792;4.372;2022-09-09T01:27:45;16.00;99.90
24011;DHT22;12217;50.792;4.372;2022-09-09T01:30:15;16.10;99.90
24011;DHT22;12217;50.792;4.372;2022-09-09T01:32:50;16.10;99.90
24011;DHT22;12217;50.792;4.372;2022-09-09T01:38:04;16.10;99.90
24011;DHT22;12217;50.792;4.372;2022-09-09T01:40:30;16.00;99.90
24011;DHT22;12217;50.792;4.372;2022-09-09T01:42:56;15.90;99.90
24011;DHT22;12217;50.792;4.372;2022-09-09T01:45:22;16.00;99.90
24011;DHT22;12217;50.792;4.372;2022-09-09T01:47:48;16.10;99.90
24011;DHT22;12217;50.792;4.372;2022-09-09T01:50:16;16.00;99.90
24011;DHT22;12217;50.792;4.372;2022-09-09T01:52:43;16.00;99.90
24011;DHT22;12217;50.792;4.372;2022-09-09T01:55:10;15.80;99.90
24011;DHT22;12217;50.792;4.372;2022-09-09T01:58:12;15.90;99.90
24011;DHT22;12217;50.792;4.372;2022-09-09T02:00:51;16.00;99.90
24011;DHT22;12217;50.792;4.372;2022-09-09T02:03:27;16.10;99.90
24011;DHT22;12217;50.792;4.372;2022-09-09T02:08:55;16.10;99.90
24011;DHT22;12217;50.792;4.372;2022-09-09T02:11:26;16.10;99.90
24011;DHT22;12217;50.792;4.372;2022-09-09T02:13:56;16.10;99.90
24011;DHT22;12217;50.792;4.372;2022-09-09T02:16:34;16.10;99.90
24011;DHT22;12217;50.792;4.372;2022-09-09T02:19:17;16.10;99.90
24011;DHT22;12217;50.792;4.372;2022-09-09T02:21:49;16.10;99.90
24011;DHT22;12217;50.792;4.372;2022-09-09T02:24:16;16.10;99.90
24011;DHT22;12217;50.792;4.372;2022-09-09T02:26:43;16.10;99.90
24011;DHT22;12217;50.792;4.372;2022-09-09T02:29:19;16.10;99.90
24011;DHT22;12217;50.792;4.372;2022-09-09T02:31:47;16.10;99.90
24011;DHT22;12217;50.792;4.372;2022-09-09T02:34:16;16.20;99.90
24011;DHT22;12217;50.792;4.372;2022-09-09T02:36:43;16.00;99.90
24011;DHT22;12217;50.792;4.372;2022-09-09T02:39:11;16.10;99.90
24011;DHT22;12217;50.792;4.372;2022-09-09T02:41:39;16.10;99.90
24011;DHT22;12217;50.792;4.372;2022-09-09T02:44:16;16.10;99.90
24011;DHT22;12217;50.792;4.372;2022-09-09T02:47:13;16.20;99.90
24011;DHT22;12217;50.792;4.372;2022-09-09T02:52:11;16.20;99.90
24011;DHT22;12217;50.792;4.372;2022-09-09T02:54:41;16.10;99.90
24011;DHT22;12217;50.792;4.372;2022-09-09T02:57:16;16.00;99.90
24011;DHT22;12217;50.792;4.372;2022-09-09T02:59:44;16.00;99.90
24011;DHT22;12217;50.792;4.372;2022-09-09T03:02:10;16.00;99.90
24011;DHT22;12217;50.792;4.372;2022-09-09T03:04:37;15.90;99.90
24011;DHT22;12217;50.792;4.372;2022-09-09T03:07:03;16.00;99.90
24011;DHT22;12217;50.792;4.372;2022-09-09T03:09:29;16.00;99.90
24011;DHT22;12217;50.792;4.372;2022-09-09T03:11:55;16.00;99.90
24011;DHT22;12217;50.792;4.372;2022-09-09T03:14:21;16.00;99.90
24011;DHT22;12217;50.792;4.372;2022-09-09T03:16:50;16.00;99.90
24011;DHT22;12217;50.792;4.372;2022-09-09T03:19:16;15.90;99.90
24011;DHT22;12217;50.792;4.372;2022-09-09T03:21:44;15.90;99.90
24011;DHT22;12217;50.792;4.372;2022-09-09T03:24:10;15.90;99.90
24011;DHT22;12217;50.792;4.372;2022-09-09T03:26:35;15.90;99.90
24011;DHT22;12217;50.792;4.372;2022-09-09T03:29:03;15.70;99.90
24011;DHT22;12217;50.792;4.372;2022-09-09T03:31:34;15.80;99.90
24011;DHT22;12217;50.792;4.372;2022-09-09T03:34:01;15.70;99.90
24011;DHT22;12217;50.792;4.372;2022-09-09T03:36:27;15.80;99.90
24011;DHT22;12217;50.792;4.372;2022-09-09T03:38:54;15.90;99.90
24011;DHT22;12217;50.792;4.372;2022-09-09T03:41:21;15.90;99.90
24011;DHT22;12217;50.792;4.372;2022-09-09T03:43:52;15.80;99.90
24011;DHT22;12217;50.792;4.372;2022-09-09T03:46:19;15.80;99.90
24011;DHT22;12217;50.792;4.372;2022-09-09T03:48:45;15.80;99.90
24011;DHT22;12217;50.792;4.372;2022-09-09T03:51:10;15.80;99.90
24011;DHT22;12217;50.792;4.372;2022-09-09T03:53:37;15.80;99.90
24011;DHT22;12217;50.792;4.372;2022-09-09T03:56:05;15.90;99.90
24011;DHT22;12217;50.792;4.372;2022-09-09T03:58:33;15.90;99.90
24011;DHT22;12217;50.792;4.372;2022-09-09T04:01:11;15.80;99.90
24011;DHT22;12217;50.792;4.372;2022-09-09T04:03:40;15.80;99.90
24011;DHT22;12217;50.792;4.372;2022-09-09T04:06:10;15.80;99.90
24011;DHT22;12217;50.792;4.372;2022-09-09T04:08:37;15.80;99.90
24011;DHT22;12217;50.792;4.372;2022-09-09T04:11:04;15.70;99.90
24011;DHT22;12217;50.792;4.372;2022-09-09T04:13:33;15.60;99.90
24011;DHT22;12217;50.792;4.372;2022-09-09T04:16:01;15.50;99.90
24011;DHT22;12217;50.792;4.372;2022-09-09T04:18:27;15.50;99.90
24011;DHT22;12217;50.792;4.372;2022-09-09T04:20:54;15.70;99.90
24011;DHT22;12217;50.792;4.372;2022-09-09T04:23:21;15.70;99.90
24011;DHT22;12217;50.792;4.372;2022-09-09T04:25:48;15.70;99.90
24011;DHT22;12217;50.792;4.372;2022-09-09T04:28:15;15.60;99.90
24011;DHT22;12217;50.792;4.372;2022-09-09T04:30:42;15.70;99.90
24011;DHT22;12217;50.792;4.372;2022-09-09T04:33:09;15.70;99.90
24011;DHT22;12217;50.792;4.372;2022-09-09T04:35:38;15.60;99.90
24011;DHT22;12217;50.792;4.372;2022-09-09T04:38:05;15.60;99.90
24011;DHT22;12217;50.792;4.372;2022-09-09T04:40:33;15.60;99.90
24011;DHT22;12217;50.792;4.372;2022-09-09T04:42:59;15.70;99.90
24011;DHT22;12217;50.792;4.372;2022-09-09T04:45:25;15.70;99.90
24011;DHT22;12217;50.792;4.372;2022-09-09T04:47:52;15.70;99.90
24011;DHT22;12217;50.792;4.372;2022-09-09T04:50:18;15.70;99.90
24011;DHT22;12217;50.792;4.372;2022-09-09T04:52:44;15.60;99.90
24011;DHT22;12217;50.792;4.372;2022-09-09T04:55:10;15.60;99.90
24011;DHT22;12217;50.792;4.372;2022-09-09T04:57:38;15.50;99.90
24011;DHT22;12217;50.792;4.372;2022-09-09T05:00:05;15.50;99.90
24011;DHT22;12217;50.792;4.372;2022-09-09T05:02:31;15.40;99.90
24011;DHT22;12217;50.792;4.372;2022-09-09T05:04:58;15.50;99.90
24011;DHT22;12217;50.792;4.372;2022-09-09T05:07:24;15.60;99.90
24011;DHT22;12217;50.792;4.372;2022-09-09T05:09:52;15.50;99.90
24011;DHT22;12217;50.792;4.372;2022-09-09T05:12:17;15.40;99.90
24011;DHT22;12217;50.792;4.372;2022-09-09T05:14:43;15.50;99.90
24011;DHT22;12217;50.792;4.372;2022-09-09T05:17:10;15.50;99.90
24011;DHT22;12217;50.792;4.372;2022-09-09T05:19:36;15.60;99.90
24011;DHT22;12217;50.792;4.372;2022-09-09T05:22:02;15.60;99.90
24011;DHT22;12217;50.792;4.372;2022-09-09T05:24:28;15.70;99.90
24011;DHT22;12217;50.792;4.372;2022-09-09T05:26:54;15.60;99.90
24011;DHT22;12217;50.792;4.372;2022-09-09T05:29:23;15.60;99.90
24011;DHT22;12217;50.792;4.372;2022-09-09T05:31:49;15.60;99.90
24011;DHT22;12217;50.792;4.372;2022-09-09T05:34:14;15.50;99.90
24011;DHT22;12217;50.792;4.372;2022-09-09T05:36:40;15.50;99.90
24011;DHT22;12217;50.792;4.372;2022-09-09T05:39:05;15.50;99.90
24011;DHT22;12217;50.792;4.372;2022-09-09T05:41:31;15.50;99.90
24011;DHT22;12217;50.792;4.372;2022-09-09T05:43:57;15.60;99.90
24011;DHT22;12217;50.792;4.372;2022-09-09T05:46:24;15.60;99.90
24011;DHT22;12217;50.792;4.372;2022-09-09T05:48:51;15.60;99.90
24011;DHT22;12217;50.792;4.372;2022-09-09T05:51:23;15.60;99.90
24011;DHT22;12217;50.792;4.372;2022-09-09T05:53:50;15.60;99.90
24011;DHT22;12217;50.792;4.372;2022-09-09T05:56:18;15.60;99.90
24011;DHT22;12217;50.792;4.372;2022-09-09T05:58:45;15.70;99.90
24011;DHT22;12217;50.792;4.372;2022-09-09T06:01:23;15.70;99.90
24011;DHT22;12217;50.792;4.372;2022-09-09T06:03:50;15.80;99.90
24011;DHT22;12217;50.792;4.372;2022-09-09T06:06:18;15.70;99.90
24011;DHT22;12217;50.792;4.372;2022-09-09T06:08:46;15.70;99.90
24011;DHT22;12217;50.792;4.372;2022-09-09T06:11:17;15.70;99.90
24011;DHT22;12217;50.792;4.372;2022-09-09T06:13:43;15.70;99.90
24011;DHT22;12217;50.792;4.372;2022-09-09T06:16:11;15.80;99.90
24011;DHT22;12217;50.792;4.372;2022-09-09T06:18:37;15.90;99.90
24011;DHT22;12217;50.792;4.372;2022-09-09T06:21:05;15.80;99.90
24011;DHT22;12217;50.792;4.372;2022-09-09T06:23:32;15.90;99.90
24011;DHT22;12217;50.792;4.372;2022-09-09T06:26:21;15.80;99.90
24011;DHT22;12217;50.792;4.372;2022-09-09T06:28:49;15.80;99.90
24011;DHT22;12217;50.792;4.372;2022-09-09T06:31:17;15.80;99.90
24011;DHT22;12217;50.792;4.372;2022-09-09T06:33:43;15.90;99.90
24011;DHT22;12217;50.792;4.372;2022-09-09T06:36:32;16.00;99.90
24011;DHT22;12217;50.792;4.372;2022-09-09T06:38:59;16.10;99.90
24011;DHT22;12217;50.792;4.372;2022-09-09T06:41:28;16.10;99.90
24011;DHT22;12217;50.792;4.372;2022-09-09T06:43:54;16.10;99.90
24011;DHT22;12217;50.792;4.372;2022-09-09T06:46:26;16.10;99.90
24011;DHT22;12217;50.792;4.372;2022-09-09T06:48:53;16.00;99.90
24011;DHT22;12217;50.792;4.372;2022-09-09T06:51:25;16.10;99.90
24011;DHT22;12217;50.792;4.372;2022-09-09T06:53:53;16.10;99.90
24011;DHT22;12217;50.792;4.372;2022-09-09T06:56:39;16.10;99.90
24011;DHT22;12217;50.792;4.372;2022-09-09T06:59:09;16.00;99.90
24011;DHT22;12217;50.792;4.372;2022-09-09T07:01:40;16.10;99.90
24011;DHT22;12217;50.792;4.372;2022-09-09T07:04:07;16.00;99.90
24011;DHT22;12217;50.792;4.372;2022-09-09T07:06:39;16.10;99.90
24011;DHT22;12217;50.792;4.372;2022-09-09T07:09:10;16.20;99.90
24011;DHT22;12217;50.792;4.372;2022-09-09T07:14:07;16.20;99.90
24011;DHT22;12217;50.792;4.372;2022-09-09T07:16:33;16.10;99.90
24011;DHT22;12217;50.792;4.372;2022-09-09T07:19:03;16.00;99.90
24011;DHT22;12217;50.792;4.372;2022-09-09T07:21:30;16.00;99.90
24011;DHT22;12217;50.792;4.372;2022-09-09T07:23:56;16.00;99.90
24011;DHT22;12217;50.792;4.372;2022-09-09T07:26:25;16.00;99.90
24011;DHT22;12217;50.792;4.372;2022-09-09T07:28:51;16.10;99.90
24011;DHT22;12217;50.792;4.372;2022-09-09T07:31:21;16.10;99.90
24011;DHT22;12217;50.792;4.372;2022-09-09T07:33:48;16.10;99.90
24011;DHT22;12217;50.792;4.372;2022-09-09T07:36:25;16.20;99.90
24011;DHT22;12217;50.792;4.372;2022-09-09T07:39:03;16.20;99.90
24011;DHT22;12217;50.792;4.372;2022-09-09T07:41:40;16.30;99.90
24011;DHT22;12217;50.792;4.372;2022-09-09T07:44:09;16.20;99.90
24011;DHT22;12217;50.792;4.372;2022-09-09T07:46:36;16.10;99.90
24011;DHT22;12217;50.792;4.372;2022-09-09T07:49:02;16.00;99.90
24011;DHT22;12217;50.792;4.372;2022-09-09T07:51:33;15.90;99.90
24011;DHT22;12217;50.792;4.372;2022-09-09T07:54:02;15.80;99.90
24011;DHT22;12217;50.792;4.372;2022-09-09T07:56:29;15.80;99.90
24011;DHT22;12217;50.792;4.372;2022-09-09T07:58:56;15.90;99.90
24011;DHT22;12217;50.792;4.372;2022-09-09T08:01:31;16.00;99.90
24011;DHT22;12217;50.792;4.372;2022-09-09T08:04:00;16.00;99.90
24011;DHT22;12217;50.792;4.372;2022-09-09T08:06:32;16.00;99.90
24011;DHT22;12217;50.792;4.372;2022-09-09T08:08:59;16.20;99.90
24011;DHT22;12217;50.792;4.372;2022-09-09T08:11:26;16.20;99.90
24011;DHT22;12217;50.792;4.372;2022-09-09T08:13:53;16.20;99.90
24011;DHT22;12217;50.792;4.372;2022-09-09T08:16:24;16.20;99.90
24011;DHT22;12217;50.792;4.372;2022-09-09T08:18:51;16.30;99.90
24011;DHT22;12217;50.792;4.372;2022-09-09T08:21:23;16.40;99.90
24011;DHT22;12217;50.792;4.372;2022-09-09T08:23:51;16.60;99.90
24011;DHT22;12217;50.792;4.372;2022-09-09T08:26:23;16.50;99.90
24011;DHT22;12217;50.792;4.372;2022-09-09T08:28:53;16.50;99.90
24011;DHT22;12217;50.792;4.372;2022-09-09T08:31:29;16.40;99.90
24011;DHT22;12217;50.792;4.372;2022-09-09T08:33:57;16.50;99.90
24011;DHT22;12217;50.792;4.372;2022-09-09T08:36:27;16.50;99.90
24011;DHT22;12217;50.792;4.372;2022-09-09T08:38:55;16.40;99.90
24011;DHT22;12217;50.792;4.372;2022-09-09T08:47:35;16.20;99.90
24011;DHT22;12217;50.792;4.372;2022-09-09T08:50:25;16.40;99.90
24011;DHT22;12217;50.792;4.372;2022-09-09T08:53:14;16.40;99.90
24011;DHT22;12217;50.792;4.372;2022-09-09T08:55:45;16.30;99.90
24011;DHT22;12217;50.792;4.372;2022-09-09T09:01:00;16.20;99.90
24011;DHT22;12217;50.792;4.372;2022-09-09T09:06:28;16.30;99.90
24011;DHT22;12217;50.792;4.372;2022-09-09T09:11:43;16.10;99.90
24011;DHT22;12217;50.792;4.372;2022-09-09T09:14:22;16.30;99.90
24011;DHT22;12217;50.792;4.372;2022-09-09T09:16:59;16.20;99.90
24011;DHT22;12217;50.792;4.372;2022-09-09T09:19:26;16.20;99.90
24011;DHT22;12217;50.792;4.372;2022-09-09T09:21:54;16.20;99.90
24011;DHT22;12217;50.792;4.372;2022-09-09T09:27:14;16.10;99.90
24011;DHT22;12217;50.792;4.372;2022-09-09T09:29:41;16.10;99.90
24011;DHT22;12217;50.792;4.372;2022-09-09T09:32:14;16.00;99.90
24011;DHT22;12217;50.792;4.372;2022-09-09T09:34:41;16.10;99.90
24011;DHT22;12217;50.792;4.372;2022-09-09T09:37:16;16.10;99.90
24011;DHT22;12217;50.792;4.372;2022-09-09T09:39:45;16.00;99.90
24011;DHT22;12217;50.792;4.372;2022-09-09T09:42:16;16.00;99.90
24011;DHT22;12217;50.792;4.372;2022-09-09T09:44:43;16.00;99.90
24011;DHT22;12217;50.792;4.372;2022-09-09T09:47:20;16.10;99.90
24011;DHT22;12217;50.792;4.372;2022-09-09T09:49:57;16.20;99.90
24011;DHT22;12217;50.792;4.372;2022-09-09T09:52:29;16.00;99.90
24011;DHT22;12217;50.792;4.372;2022-09-09T09:54:56;16.20;99.90
24011;DHT22;12217;50.792;4.372;2022-09-09T09:57:28;16.20;99.90
24011;DHT22;12217;50.792;4.372;2022-09-09T10:00:04;16.20;99.90
24011;DHT22;12217;50.792;4.372;2022-09-09T10:02:38;16.10;99.90
24011;DHT22;12217;50.792;4.372;2022-09-09T10:05:17;16.10;99.90
24011;DHT22;12217;50.792;4.372;2022-09-09T10:07:44;16.30;99.90
24011;DHT22;12217;50.792;4.372;2022-09-09T10:10:26;16.30;99.90
24011;DHT22;12217;50.792;4.372;2022-09-09T10:12:58;16.20;99.90
24011;DHT22;12217;50.792;4.372;2022-09-09T10:15:52;16.20;99.90
24011;DHT22;12217;50.792;4.372;2022-09-09T10:22:10;16.20;99.90
24011;DHT22;12217;50.792;4.372;2022-09-09T10:24:39;16.20;99.90
24011;DHT22;12217;50.792;4.372;2022-09-09T10:56:58;16.60;99.90
24011;DHT22;12217;50.792;4.372;2022-09-09T10:59:28;16.70;99.90
24011;DHT22;12217;50.792;4.372;2022-09-09T11:07:44;16.90;99.90
24011;DHT22;12217;50.792;4.372;2022-09-09T11:13:14;17.00;99.90
24011;DHT22;12217;50.792;4.372;2022-09-09T11:15:50;17.10;99.90
24011;DHT22;12217;50.792;4.372;2022-09-09T11:18:22;17.10;99.90
24011;DHT22;12217;50.792;4.372;2022-09-09T11:20:52;17.20;99.90
24011;DHT22;12217;50.792;4.372;2022-09-09T11:23:45;17.20;99.90
24011;DHT22;12217;50.792;4.372;2022-09-09T11:26:21;17.40;99.90
24011;DHT22;12217;50.792;4.372;2022-09-09T11:28:59;17.30;99.90
24011;DHT22;12217;50.792;4.372;2022-09-09T11:31:48;17.30;99.90
24011;DHT22;12217;50.792;4.372;2022-09-09T11:44:38;17.20;99.90
24011;DHT22;12217;50.792;4.372;2022-09-09T11:47:34;17.30;99.90
24011;DHT22;12217;50.792;4.372;2022-09-09T11:50:26;17.40;99.90
24011;DHT22;12217;50.792;4.372;2022-09-09T11:55:39;17.40;99.90
24011;DHT22;12217;50.792;4.372;2022-09-09T12:00:41;17.40;99.90
24011;DHT22;12217;50.792;4.372;2022-09-09T12:03:34;17.40;99.90
24011;DHT22;12217;50.792;4.372;2022-09-09T12:06:19;17.40;99.90
24011;DHT22;12217;50.792;4.372;2022-09-09T12:09:04;17.50;99.90
24011;DHT22;12217;50.792;4.372;2022-09-09T12:11:30;17.50;99.90
24011;DHT22;12217;50.792;4.372;2022-09-09T12:14:01;17.60;99.90
24011;DHT22;12217;50.792;4.372;2022-09-09T12:16:36;17.70;99.90
24011;DHT22;12217;50.792;4.372;2022-09-09T12:19:15;17.70;99.90
24011;DHT22;12217;50.792;4.372;2022-09-09T12:27:13;17.60;99.90
24011;DHT22;12217;50.792;4.372;2022-09-09T12:32:24;17.70;99.90
24011;DHT22;12217;50.792;4.372;2022-09-09T12:35:18;17.70;99.90
24011;DHT22;12217;50.792;4.372;2022-09-09T12:38:00;17.80;99.90
24011;DHT22;12217;50.792;4.372;2022-09-09T12:40:32;17.90;99.90
24011;DHT22;12217;50.792;4.372;2022-09-09T12:43:22;17.90;99.90
24011;DHT22;12217;50.792;4.372;2022-09-09T12:45:47;18.00;99.90
24011;DHT22;12217;50.792;4.372;2022-09-09T12:48:18;18.20;99.90
24011;DHT22;12217;50.792;4.372;2022-09-09T12:50:48;18.40;99.90
24011;DHT22;12217;50.792;4.372;2022-09-09T12:53:23;18.40;99.90
24011;DHT22;12217;50.792;4.372;2022-09-09T12:55:55;18.40;99.90
24011;DHT22;12217;50.792;4.372;2022-09-09T12:58:22;18.20;99.90
24011;DHT22;12217;50.792;4.372;2022-09-09T13:00:55;18.10;99.90
24011;DHT22;12217;50.792;4.372;2022-09-09T13:03:22;18.10;99.90
24011;DHT22;12217;50.792;4.372;2022-09-09T13:05:48;18.30;99.90
24011;DHT22;12217;50.792;4.372;2022-09-09T13:08:16;18.40;99.90
24011;DHT22;12217;50.792;4.372;2022-09-09T13:10:59;18.50;99.90
24011;DHT22;12217;50.792;4.372;2022-09-09T13:13:50;18.60;99.90
24011;DHT22;12217;50.792;4.372;2022-09-09T13:16:30;18.70;99.90
24011;DHT22;12217;50.792;4.372;2022-09-09T13:19:01;18.60;99.90
24011;DHT22;12217;50.792;4.372;2022-09-09T13:21:37;18.50;99.90
24011;DHT22;12217;50.792;4.372;2022-09-09T13:27:28;18.90;99.90
24011;DHT22;12217;50.792;4.372;2022-09-09T13:29:55;19.30;99.90
24011;DHT22;12217;50.792;4.372;2022-09-09T13:32:23;19.50;99.90
24011;DHT22;12217;50.792;4.372;2022-09-09T13:34:57;19.60;99.90
24011;DHT22;12217;50.792;4.372;2022-09-09T13:37:32;19.50;99.90
24011;DHT22;12217;50.792;4.372;2022-09-09T13:39:59;19.60;99.90
24011;DHT22;12217;50.792;4.372;2022-09-09T13:42:27;19.90;99.90
24011;DHT22;12217;50.792;4.372;2022-09-09T13:44:55;19.90;99.90
24011;DHT22;12217;50.792;4.372;2022-09-09T13:47:33;19.80;99.90
24011;DHT22;12217;50.792;4.372;2022-09-09T13:50:31;19.70;99.90
24011;DHT22;12217;50.792;4.372;2022-09-09T13:52:58;19.90;99.90
24011;DHT22;12217;50.792;4.372;2022-09-09T13:55:26;20.00;99.90
24011;DHT22;12217;50.792;4.372;2022-09-09T13:57:59;20.00;99.90
24011;DHT22;12217;50.792;4.372;2022-09-09T14:00:28;19.70;99.90
24011;DHT22;12217;50.792;4.372;2022-09-09T14:02:54;19.60;99.90
24011;DHT22;12217;50.792;4.372;2022-09-09T14:05:20;19.30;99.90
24011;DHT22;12217;50.792;4.372;2022-09-09T14:07:48;19.40;99.90
24011;DHT22;12217;50.792;4.372;2022-09-09T14:10:14;19.50;99.90
24011;DHT22;12217;50.792;4.372;2022-09-09T14:12:40;19.60;99.90
24011;DHT22;12217;50.792;4.372;2022-09-09T14:15:07;19.50;99.90
24011;DHT22;12217;50.792;4.372;2022-09-09T14:17:33;19.50;99.90
24011;DHT22;12217;50.792;4.372;2022-09-09T14:20:03;19.50;99.90
24011;DHT22;12217;50.792;4.372;2022-09-09T14:22:33;19.50;99.90
24011;DHT22;12217;50.792;4.372;2022-09-09T14:24:58;19.60;99.90
24011;DHT22;12217;50.792;4.372;2022-09-09T14:27:24;19.60;99.90
24011;DHT22;12217;50.792;4.372;2022-09-09T14:29:52;19.70;99.90
24011;DHT22;12217;50.792;4.372;2022-09-09T14:32:17;19.40;99.90
24011;DHT22;12217;50.792;4.372;2022-09-09T14:34:43;19.40;99.90
24011;DHT22;12217;50.792;4.372;2022-09-09T14:37:09;19.40;99.90
24011;DHT22;12217;50.792;4.372;2022-09-09T14:39:34;19.50;99.90
24011;DHT22;12217;50.792;4.372;2022-09-09T14:42:00;19.50;99.90
24011;DHT22;12217;50.792;4.372;2022-09-09T14:44:27;19.60;99.90
24011;DHT22;12217;50.792;4.372;2022-09-09T14:46:53;19.70;99.90
24011;DHT22;12217;50.792;4.372;2022-09-09T14:49:19;19.60;99.90
24011;DHT22;12217;50.792;4.372;2022-09-09T14:51:45;19.60;99.90
24011;DHT22;12217;50.792;4.372;2022-09-09T14:54:11;19.90;99.90
24011;DHT22;12217;50.792;4.372;2022-09-09T14:56:37;20.00;99.90
24011;DHT22;12217;50.792;4.372;2022-09-09T14:59:03;20.30;99.90
24011;DHT22;12217;50.792;4.372;2022-09-09T15:01:30;20.40;99.90
24011;DHT22;12217;50.792;4.372;2022-09-09T15:03:57;20.40;99.90
24011;DHT22;12217;50.792;4.372;2022-09-09T15:06:24;20.10;99.90
24011;DHT22;12217;50.792;4.372;2022-09-09T15:08:52;20.10;99.90
24011;DHT22;12217;50.792;4.372;2022-09-09T15:11:19;20.00;99.90
24011;DHT22;12217;50.792;4.372;2022-09-09T15:13:45;19.80;99.90
24011;DHT22;12217;50.792;4.372;2022-09-09T15:16:14;20.00;99.90
24011;DHT22;12217;50.792;4.372;2022-09-09T15:18:41;20.10;99.90
24011;DHT22;12217;50.792;4.372;2022-09-09T15:21:15;20.20;99.90
24011;DHT22;12217;50.792;4.372;2022-09-09T15:23:42;20.10;99.90
24011;DHT22;12217;50.792;4.372;2022-09-09T15:26:08;20.00;99.90
24011;DHT22;12217;50.792;4.372;2022-09-09T15:28:35;19.90;99.90
24011;DHT22;12217;50.792;4.372;2022-09-09T15:31:06;19.80;99.90
24011;DHT22;12217;50.792;4.372;2022-09-09T15:33:32;19.70;99.90
24011;DHT22;12217;50.792;4.372;2022-09-09T15:35:58;19.70;99.90
24011;DHT22;12217;50.792;4.372;2022-09-09T15:38:24;19.60;99.90
24011;DHT22;12217;50.792;4.372;2022-09-09T15:40:54;19.60;99.90
24011;DHT22;12217;50.792;4.372;2022-09-09T15:43:20;19.60;99.90
24011;DHT22;12217;50.792;4.372;2022-09-09T15:45:53;19.70;99.90
24011;DHT22;12217;50.792;4.372;2022-09-09T15:48:30;20.00;99.90
24011;DHT22;12217;50.792;4.372;2022-09-09T15:51:03;20.00;99.90
24011;DHT22;12217;50.792;4.372;2022-09-09T15:53:30;19.80;99.90
24011;DHT22;12217;50.792;4.372;2022-09-09T15:55:58;19.80;99.90
24011;DHT22;12217;50.792;4.372;2022-09-09T15:58:24;19.90;99.90
24011;DHT22;12217;50.792;4.372;2022-09-09T16:00:50;20.20;99.90
24011;DHT22;12217;50.792;4.372;2022-09-09T16:03:16;20.20;99.90
24011;DHT22;12217;50.792;4.372;2022-09-09T16:05:42;20.50;99.90
24011;DHT22;12217;50.792;4.372;2022-09-09T16:08:08;20.50;99.90
24011;DHT22;12217;50.792;4.372;2022-09-09T16:10:34;20.30;99.90
24011;DHT22;12217;50.792;4.372;2022-09-09T16:13:00;20.10;99.90
24011;DHT22;12217;50.792;4.372;2022-09-09T16:15:25;19.80;99.90
24011;DHT22;12217;50.792;4.372;2022-09-09T16:17:53;19.70;99.90
24011;DHT22;12217;50.792;4.372;2022-09-09T16:20:19;19.60;99.90
24011;DHT22;12217;50.792;4.372;2022-09-09T16:22:45;19.40;99.90
24011;DHT22;12217;50.792;4.372;2022-09-09T16:25:11;19.50;99.90
24011;DHT22;12217;50.792;4.372;2022-09-09T16:27:37;19.30;99.90
24011;DHT22;12217;50.792;4.372;2022-09-09T16:30:03;19.10;99.90
24011;DHT22;12217;50.792;4.372;2022-09-09T16:32:28;19.00;99.90
24011;DHT22;12217;50.792;4.372;2022-09-09T16:34:55;19.00;99.90
24011;DHT22;12217;50.792;4.372;2022-09-09T16:37:21;18.90;99.90
24011;DHT22;12217;50.792;4.372;2022-09-09T16:39:47;19.00;99.90
24011;DHT22;12217;50.792;4.372;2022-09-09T16:42:12;18.80;99.90
24011;DHT22;12217;50.792;4.372;2022-09-09T16:44:38;18.80;99.90
24011;DHT22;12217;50.792;4.372;2022-09-09T16:47:04;18.80;99.90
24011;DHT22;12217;50.792;4.372;2022-09-09T16:49:29;18.70;99.90
24011;DHT22;12217;50.792;4.372;2022-09-09T16:51:58;18.50;99.90
24011;DHT22;12217;50.792;4.372;2022-09-09T16:54:24;18.20;99.90
24011;DHT22;12217;50.792;4.372;2022-09-09T16:56:50;18.20;99.90
24011;DHT22;12217;50.792;4.372;2022-09-09T16:59:18;18.10;99.90
24011;DHT22;12217;50.792;4.372;2022-09-09T17:01:46;17.90;99.90
24011;DHT22;12217;50.792;4.372;2022-09-09T17:04:17;17.90;99.90
24011;DHT22;12217;50.792;4.372;2022-09-09T17:06:47;18.10;99.90
24011;DHT22;12217;50.792;4.372;2022-09-09T17:09:14;17.90;99.90
24011;DHT22;12217;50.792;4.372;2022-09-09T17:11:40;17.90;99.90
24011;DHT22;12217;50.792;4.372;2022-09-09T17:14:08;17.80;99.90
24011;DHT22;12217;50.792;4.372;2022-09-09T17:16:35;17.80;99.90
24011;DHT22;12217;50.792;4.372;2022-09-09T17:19:01;18.00;99.90
24011;DHT22;12217;50.792;4.372;2022-09-09T17:21:30;18.10;99.90
24011;DHT22;12217;50.792;4.372;2022-09-09T17:23:57;18.10;99.90
24011;DHT22;12217;50.792;4.372;2022-09-09T17:26:25;18.00;99.90
24011;DHT22;12217;50.792;4.372;2022-09-09T17:28:52;18.10;99.90
24011;DHT22;12217;50.792;4.372;2022-09-09T17:31:19;18.00;99.90
24011;DHT22;12217;50.792;4.372;2022-09-09T17:33:46;17.90;99.90
24011;DHT22;12217;50.792;4.372;2022-09-09T17:38:47;17.80;99.90
24011;DHT22;12217;50.792;4.372;2022-09-09T17:41:17;17.80;99.90
24011;DHT22;12217;50.792;4.372;2022-09-09T17:43:44;17.80;99.90
24011;DHT22;12217;50.792;4.372;2022-09-09T17:46:12;17.80;99.90
24011;DHT22;12217;50.792;4.372;2022-09-09T17:48:39;17.70;99.90
24011;DHT22;12217;50.792;4.372;2022-09-09T17:51:07;17.60;99.90